createdAt,value
2018-01-22T00:00:24.496Z,-0.92
2018-01-22T00:01:34.713Z,-1.05
2018-01-22T00:02:45.107Z,-1.02
2018-01-22T00:03:55.397Z,-0.87
2018-01-22T00:05:05.574Z,-0.88
2018-01-22T00:06:15.782Z,-0.89
2018-01-22T00:07:25.918Z,-0.96
2018-01-22T00:08:36.072Z,-1
2018-01-22T00:09:46.377Z,-0.89
2018-01-22T00:10:56.641Z,-0.91
2018-01-22T00:12:06.817Z,-1.03
2018-01-22T00:13:17.029Z,-0.85
2018-01-22T00:14:27.195Z,-0.92
2018-01-22T00:15:37.567Z,-0.89
2018-01-22T00:16:47.780Z,-0.88
2018-01-22T00:17:57.998Z,-0.82
2018-01-22T00:19:08.125Z,-0.77
2018-01-22T00:20:18.294Z,-0.71
2018-01-22T00:21:28.409Z,-0.76
2018-01-22T00:22:38.564Z,-0.7
2018-01-22T00:23:48.666Z,-0.66
2018-01-22T00:24:58.880Z,-0.63
2018-01-22T00:26:08.742Z,-0.6
2018-01-22T00:27:18.874Z,-0.64
2018-01-22T00:28:29.028Z,-0.73
2018-01-22T00:29:39.243Z,-0.71
2018-01-22T00:30:49.421Z,-0.77
2018-01-22T00:31:59.601Z,-0.87
2018-01-22T00:33:09.850Z,-0.82
2018-01-22T00:34:20.131Z,-0.87
2018-01-22T00:35:30.299Z,-0.87
2018-01-22T00:36:40.444Z,-0.87
2018-01-22T00:37:50.701Z,-0.88
2018-01-22T00:39:00.891Z,-0.96
2018-01-22T00:40:10.759Z,-1.06
2018-01-22T00:41:21.089Z,-1.12
2018-01-22T00:42:31.220Z,-1.06
2018-01-22T00:43:41.390Z,-1.1
2018-01-22T00:44:51.502Z,-1.09
2018-01-22T00:46:01.630Z,-1.06
2018-01-22T00:47:11.756Z,-1.13
2018-01-22T00:48:21.941Z,-1.14
2018-01-22T00:49:32.071Z,-1.25
2018-01-22T00:50:41.968Z,-1.23
2018-01-22T00:51:52.096Z,-1.16
2018-01-22T00:53:02.258Z,-1.09
2018-01-22T00:54:12.400Z,-1.1
2018-01-22T00:55:22.649Z,-1.12
2018-01-22T00:56:32.795Z,-1.09
2018-01-22T00:57:42.685Z,-1.03
2018-01-22T00:58:52.822Z,-1.16
2018-01-22T01:00:02.950Z,-1.07
2018-01-22T01:01:13.158Z,-1.07
2018-01-22T01:02:23.298Z,-1.02
2018-01-22T01:03:33.410Z,-1.06
2018-01-22T01:04:43.543Z,-1.05
2018-01-22T01:05:53.664Z,-1.1
2018-01-22T01:07:03.797Z,-1.07
2018-01-22T01:08:13.996Z,-1.13
2018-01-22T01:09:24.176Z,-1.09
2018-01-22T01:10:34.425Z,-0.95
2018-01-22T01:11:44.674Z,-0.88
2018-01-22T01:12:54.863Z,-1
2018-01-22T01:14:04.789Z,-0.96
2018-01-22T01:15:14.920Z,-0.98
2018-01-22T01:16:25.166Z,-1
2018-01-22T01:17:35.382Z,-0.98
2018-01-22T01:18:45.612Z,-0.91
2018-01-22T01:19:55.790Z,-0.95
2018-01-22T01:21:05.993Z,-0.94
2018-01-22T01:22:16.249Z,-0.87
2018-01-22T01:23:26.372Z,-0.89
2018-01-22T01:24:36.498Z,-1.02
2018-01-22T01:25:46.399Z,-0.89
2018-01-22T01:26:56.642Z,-0.98
2018-01-22T01:28:06.800Z,-0.96
2018-01-22T01:29:16.950Z,-1.06
2018-01-22T01:30:27.196Z,-1.09
2018-01-22T01:31:37.318Z,-1.12
2018-01-22T01:32:47.438Z,-1.12
2018-01-22T01:33:57.564Z,-1.13
2018-01-22T01:35:07.744Z,-1.06
2018-01-22T01:36:17.653Z,-1.07
2018-01-22T01:37:27.786Z,-1.06
2018-01-22T01:38:37.946Z,-1.09
2018-01-22T01:39:48.124Z,-1.06
2018-01-22T01:40:58.278Z,-1.07
2018-01-22T01:42:08.413Z,-0.96
2018-01-22T01:43:18.547Z,-1.02
2018-01-22T01:44:28.668Z,-0.96
2018-01-22T01:45:38.803Z,-1.02
2018-01-22T01:46:48.948Z,-0.89
2018-01-22T01:47:59.112Z,-0.95
2018-01-22T01:49:09.225Z,-0.96
2018-01-22T01:50:19.365Z,-1.02
2018-01-22T01:51:29.526Z,-0.98
2018-01-22T01:52:39.641Z,-0.96
2018-01-22T01:53:49.730Z,-0.94
2018-01-22T01:54:59.872Z,-0.92
2018-01-22T01:56:09.987Z,-0.91
2018-01-22T01:57:19.754Z,-0.94
2018-01-22T01:58:29.867Z,-0.88
2018-01-22T01:59:39.982Z,-0.89
2018-01-22T02:00:50.140Z,-0.92
2018-01-22T02:02:00.359Z,-0.95
2018-01-22T02:03:09.958Z,-0.88
2018-01-22T02:04:19.821Z,-0.91
2018-01-22T02:05:29.974Z,-0.89
2018-01-22T02:06:40.120Z,-0.82
2018-01-22T02:07:50.264Z,-0.87
2018-01-22T02:09:00.388Z,-0.82
2018-01-22T02:10:10.540Z,-0.91
2018-01-22T02:11:20.678Z,-0.92
2018-01-22T02:12:30.470Z,-0.89
2018-01-22T02:13:40.593Z,-0.84
2018-01-22T02:14:50.857Z,-0.89
2018-01-22T02:16:01.027Z,-0.82
2018-01-22T02:17:11.164Z,-0.91
2018-01-22T02:18:21.269Z,-0.91
2018-01-22T02:19:31.420Z,-0.87
2018-01-22T02:20:41.559Z,-0.82
2018-01-22T02:21:51.736Z,-0.88
2018-01-22T02:23:01.983Z,-0.85
2018-01-22T02:24:12.086Z,-0.89
2018-01-22T02:25:22.246Z,-0.85
2018-01-22T02:26:32.386Z,-0.82
2018-01-22T02:27:42.493Z,-0.88
2018-01-22T02:28:52.633Z,-0.76
2018-01-22T02:30:02.881Z,-0.77
2018-01-22T02:31:13.091Z,-0.74
2018-01-22T02:32:23.181Z,-0.76
2018-01-22T02:33:33.022Z,-0.77
2018-01-22T02:34:43.189Z,-0.84
2018-01-22T02:35:54.459Z,-0.92
2018-01-22T02:37:04.630Z,-0.91
2018-01-22T02:38:14.829Z,-0.98
2018-01-22T02:39:24.974Z,-0.98
2018-01-22T02:40:35.237Z,-0.85
2018-01-22T02:41:45.049Z,-1
2018-01-22T02:42:55.169Z,-1.02
2018-01-22T02:44:05.422Z,-0.92
2018-01-22T02:45:15.601Z,-0.89
2018-01-22T02:46:25.747Z,-0.88
2018-01-22T02:47:35.879Z,-0.87
2018-01-22T02:48:45.997Z,-0.92
2018-01-22T02:49:56.122Z,-0.92
2018-01-22T02:51:06.247Z,-0.94
2018-01-22T02:52:16.548Z,-0.88
2018-01-22T02:53:26.699Z,-0.87
2018-01-22T02:54:36.932Z,-1.02
2018-01-22T02:55:48.036Z,-0.91
2018-01-22T02:56:58.152Z,-0.94
2018-01-22T02:58:08.300Z,-0.91
2018-01-22T02:59:18.159Z,-0.98
2018-01-22T03:00:28.276Z,-0.92
2018-01-22T03:01:38.378Z,-0.96
2018-01-22T03:02:48.594Z,-1.02
2018-01-22T03:03:58.767Z,-1.02
2018-01-22T03:05:08.932Z,-0.96
2018-01-22T03:06:19.070Z,-0.98
2018-01-22T03:07:29.164Z,-0.95
2018-01-22T03:08:39.263Z,-1.02
2018-01-22T03:09:49.372Z,-0.92
2018-01-22T03:10:59.512Z,-1
2018-01-22T03:12:09.709Z,-0.95
2018-01-22T03:13:19.823Z,-0.91
2018-01-22T03:14:29.945Z,-0.94
2018-01-22T03:15:40.105Z,-1.07
2018-01-22T03:16:50.226Z,-1.06
2018-01-22T03:18:00.516Z,-1.02
2018-01-22T03:19:10.679Z,-1.16
2018-01-22T03:20:20.842Z,-1.23
2018-01-22T03:21:31.066Z,-1.26
2018-01-22T03:22:41.303Z,-1.18
2018-01-22T03:23:51.474Z,-1.18
2018-01-22T03:25:01.603Z,-1.14
2018-01-22T03:26:11.714Z,-1.26
2018-01-22T03:27:21.838Z,-1.21
2018-01-22T03:28:31.708Z,-1.21
2018-01-22T03:29:41.837Z,-1.18
2018-01-22T03:30:51.972Z,-1.18
2018-01-22T03:32:02.129Z,-1.2
2018-01-22T03:33:12.309Z,-1.21
2018-01-22T03:34:23.470Z,-1.25
2018-01-22T03:35:33.729Z,-1.21
2018-01-22T03:36:44.010Z,-1.28
2018-01-22T03:37:54.186Z,-1.18
2018-01-22T03:39:04.407Z,-1.21
2018-01-22T03:40:14.169Z,-1.29
2018-01-22T03:41:24.350Z,-1.28
2018-01-22T03:42:34.485Z,-1.25
2018-01-22T03:43:45.255Z,-1.26
2018-01-22T03:44:55.413Z,-1.28
2018-01-22T03:46:05.508Z,-1.28
2018-01-22T03:47:15.609Z,-1.26
2018-01-22T03:48:25.747Z,-1.28
2018-01-22T03:49:35.876Z,-1.2
2018-01-22T03:50:45.993Z,-1.28
2018-01-22T03:51:56.023Z,-1.25
2018-01-22T03:53:06.241Z,-1.23
2018-01-22T03:54:16.352Z,-1.28
2018-01-22T03:55:26.589Z,-1.23
2018-01-22T03:56:36.805Z,-1.16
2018-01-22T03:57:46.922Z,-1.18
2018-01-22T03:58:57.050Z,-1.18
2018-01-22T04:00:07.165Z,-1.23
2018-01-22T04:01:17.287Z,-1.14
2018-01-22T04:02:27.384Z,-1.06
2018-01-22T04:03:37.552Z,-1.13
2018-01-22T04:04:47.720Z,-1.1
2018-01-22T04:05:57.813Z,-1.16
2018-01-22T04:07:07.930Z,-1.2
2018-01-22T04:08:18.099Z,-1.29
2018-01-22T04:09:28.230Z,-1.23
2018-01-22T04:10:38.358Z,-1.25
2018-01-22T04:11:48.474Z,-1.31
2018-01-22T04:12:58.570Z,-1.29
2018-01-22T04:14:08.712Z,-1.23
2018-01-22T04:15:18.842Z,-1.26
2018-01-22T04:16:29.009Z,-1.25
2018-01-22T04:17:39.281Z,-1.29
2018-01-22T04:18:49.484Z,-1.21
2018-01-22T04:19:59.357Z,-1.2
2018-01-22T04:21:09.479Z,-1.14
2018-01-22T04:22:19.697Z,-1.13
2018-01-22T04:23:29.507Z,-1.26
2018-01-22T04:24:39.679Z,-1.2
2018-01-22T04:25:49.919Z,-1.25
2018-01-22T04:27:00.025Z,-1.23
2018-01-22T04:28:10.155Z,-1.14
2018-01-22T04:29:20.286Z,-1.2
2018-01-22T04:30:30.423Z,-1.2
2018-01-22T04:31:40.534Z,-1.21
2018-01-22T04:32:50.782Z,-1.14
2018-01-22T04:34:00.984Z,-1.16
2018-01-22T04:35:11.141Z,-1.09
2018-01-22T04:36:21.265Z,-1.12
2018-01-22T04:37:31.421Z,-1.12
2018-01-22T04:38:41.578Z,-1.1
2018-01-22T04:39:51.717Z,-1.07
2018-01-22T04:41:01.845Z,-1.12
2018-01-22T04:42:11.961Z,-1.12
2018-01-22T04:43:22.099Z,-1.07
2018-01-22T04:44:32.228Z,-1.07
2018-01-22T04:45:42.330Z,-1.1
2018-01-22T04:46:52.489Z,-1.12
2018-01-22T04:48:02.785Z,-1.18
2018-01-22T04:49:12.902Z,-1.12
2018-01-22T04:50:23.164Z,-1.02
2018-01-22T04:51:33.284Z,-1.05
2018-01-22T04:52:43.464Z,-1.09
2018-01-22T04:53:53.629Z,-1.09
2018-01-22T04:55:03.785Z,-1.1
2018-01-22T04:56:13.651Z,-1.03
2018-01-22T04:57:23.797Z,-1.09
2018-01-22T04:58:33.897Z,-1.05
2018-01-22T04:59:44.979Z,-0.96
2018-01-22T05:00:55.127Z,-1
2018-01-22T05:02:05.297Z,-1.05
2018-01-22T05:03:15.550Z,-1.1
2018-01-22T05:04:25.408Z,-1.06
2018-01-22T05:05:35.558Z,-1.07
2018-01-22T05:06:45.711Z,-1.09
2018-01-22T05:07:55.876Z,-1
2018-01-22T05:09:06.968Z,-1.12
2018-01-22T05:10:17.099Z,-1
2018-01-22T05:11:27.214Z,-1.02
2018-01-22T05:12:36.847Z,-1
2018-01-22T05:13:46.793Z,-1.07
2018-01-22T05:14:56.898Z,-1.1
2018-01-22T05:16:07.028Z,-1.1
2018-01-22T05:17:17.199Z,-1.1
2018-01-22T05:18:27.437Z,-1.07
2018-01-22T05:19:37.662Z,-1.12
2018-01-22T05:20:47.812Z,-1.07
2018-01-22T05:21:57.963Z,-1.05
2018-01-22T05:23:08.082Z,-1.07
2018-01-22T05:24:18.236Z,-1.07
2018-01-22T05:25:28.440Z,-1
2018-01-22T05:26:38.592Z,-0.94
2018-01-22T05:27:48.716Z,-1.05
2018-01-22T05:28:58.969Z,-1.1
2018-01-22T05:30:09.116Z,-0.98
2018-01-22T05:31:19.429Z,-1.09
2018-01-22T05:32:29.598Z,-0.96
2018-01-22T05:33:39.773Z,-1.05
2018-01-22T05:34:50.003Z,-1.06
2018-01-22T05:36:00.138Z,-1.13
2018-01-22T05:37:10.255Z,-1.06
2018-01-22T05:38:20.186Z,-1.09
2018-01-22T05:39:30.626Z,-1.14
2018-01-22T05:40:40.779Z,-0.98
2018-01-22T05:41:50.940Z,-0.96
2018-01-22T05:43:01.166Z,-1
2018-01-22T05:44:11.338Z,-0.96
2018-01-22T05:45:21.545Z,-0.94
2018-01-22T05:46:31.692Z,-1
2018-01-22T05:47:41.785Z,-0.89
2018-01-22T05:48:51.929Z,-0.88
2018-01-22T05:50:02.070Z,-0.84
2018-01-22T05:51:12.221Z,-0.92
2018-01-22T05:52:22.338Z,-0.77
2018-01-22T05:53:32.673Z,-0.91
2018-01-22T05:54:42.788Z,-0.92
2018-01-22T05:55:52.942Z,-0.85
2018-01-22T05:57:03.101Z,-0.94
2018-01-22T05:58:14.253Z,-1
2018-01-22T05:59:24.361Z,-0.96
2018-01-22T06:00:34.226Z,-1
2018-01-22T06:01:44.343Z,-0.96
2018-01-22T06:02:54.468Z,-0.94
2018-01-22T06:04:04.599Z,-0.96
2018-01-22T06:05:14.732Z,-0.94
2018-01-22T06:06:25.082Z,-0.98
2018-01-22T06:07:35.323Z,-0.94
2018-01-22T06:08:45.510Z,-0.89
2018-01-22T06:09:55.700Z,-0.95
2018-01-22T06:11:05.610Z,-0.96
2018-01-22T06:12:15.752Z,-0.98
2018-01-22T06:13:26.861Z,-1.13
2018-01-22T06:14:37.099Z,-1.1
2018-01-22T06:15:47.329Z,-1.07
2018-01-22T06:16:57.469Z,-1.05
2018-01-22T06:18:07.374Z,-1.06
2018-01-22T06:19:17.482Z,-1.13
2018-01-22T06:20:27.666Z,-1.12
2018-01-22T06:21:37.905Z,-1.09
2018-01-22T06:22:48.065Z,-1.03
2018-01-22T06:23:58.013Z,-1.02
2018-01-22T06:25:08.228Z,-1.13
2018-01-22T06:26:18.535Z,-1.18
2018-01-22T06:27:28.638Z,-1.21
2018-01-22T06:28:38.817Z,-1.14
2018-01-22T06:29:49.021Z,-1.12
2018-01-22T06:30:59.161Z,-1.09
2018-01-22T06:32:09.019Z,-1.12
2018-01-22T06:33:19.199Z,-1.05
2018-01-22T06:34:29.371Z,-0.96
2018-01-22T06:35:39.603Z,-1
2018-01-22T06:36:49.826Z,-0.95
2018-01-22T06:37:59.982Z,-0.92
2018-01-22T06:39:10.107Z,-0.95
2018-01-22T06:40:20.111Z,-0.89
2018-01-22T06:41:30.291Z,-0.85
2018-01-22T06:42:40.504Z,-1.05
2018-01-22T06:43:50.751Z,-0.95
2018-01-22T06:45:00.966Z,-0.91
2018-01-22T06:46:11.243Z,-1.02
2018-01-22T06:47:21.490Z,-1
2018-01-22T06:48:31.605Z,-0.96
2018-01-22T06:49:41.830Z,-0.96
2018-01-22T06:50:51.719Z,-0.96
2018-01-22T06:52:01.834Z,-0.85
2018-01-22T06:53:11.964Z,-0.94
2018-01-22T06:54:23.067Z,-0.96
2018-01-22T06:55:33.418Z,-0.89
2018-01-22T06:56:43.677Z,-0.92
2018-01-22T06:57:53.900Z,-0.96
2018-01-22T06:59:04.084Z,-1
2018-01-22T07:00:14.217Z,-0.84
2018-01-22T07:01:24.375Z,-0.98
2018-01-22T07:02:34.513Z,-0.98
2018-01-22T07:03:44.568Z,-0.95
2018-01-22T07:04:54.780Z,-0.98
2018-01-22T07:06:04.995Z,-0.88
2018-01-22T07:07:15.127Z,-0.88
2018-01-22T07:08:25.270Z,-0.78
2018-01-22T07:09:35.417Z,-0.89
2018-01-22T07:10:45.815Z,-0.88
2018-01-22T07:11:55.985Z,-0.82
2018-01-22T07:13:06.123Z,-0.84
2018-01-22T07:14:16.233Z,-0.82
2018-01-22T07:15:26.362Z,-0.82
2018-01-22T07:16:36.469Z,-0.91
2018-01-22T07:17:46.701Z,-0.87
2018-01-22T07:18:56.812Z,-0.82
2018-01-22T07:20:07.022Z,-0.82
2018-01-22T07:21:17.046Z,-0.84
2018-01-22T07:22:27.166Z,-0.82
2018-01-22T07:23:37.343Z,-0.85
2018-01-22T07:24:47.542Z,-0.87
2018-01-22T07:25:57.692Z,-0.87
2018-01-22T07:27:07.850Z,-0.84
2018-01-22T07:28:17.971Z,-0.74
2018-01-22T07:29:28.160Z,-0.84
2018-01-22T07:30:38.280Z,-0.84
2018-01-22T07:31:48.430Z,-0.74
2018-01-22T07:32:58.522Z,-0.82
2018-01-22T07:34:08.675Z,-0.82
2018-01-22T07:35:18.822Z,-0.78
2018-01-22T07:36:28.928Z,-0.82
2018-01-22T07:37:39.033Z,-0.77
2018-01-22T07:38:49.218Z,-0.77
2018-01-22T07:39:59.132Z,-0.78
2018-01-22T07:41:09.267Z,-0.77
2018-01-22T07:42:19.397Z,-0.77
2018-01-22T07:43:29.612Z,-0.71
2018-01-22T07:44:39.827Z,-0.84
2018-01-22T07:45:50.020Z,-0.74
2018-01-22T07:47:00.172Z,-0.82
2018-01-22T07:48:10.330Z,-0.82
2018-01-22T07:49:20.465Z,-0.78
2018-01-22T07:50:30.578Z,-0.71
2018-01-22T07:51:40.444Z,-0.73
2018-01-22T07:52:50.556Z,-0.76
2018-01-22T07:54:00.748Z,-0.73
2018-01-22T07:55:10.873Z,-0.7
2018-01-22T07:56:20.993Z,-0.74
2018-01-22T07:57:31.218Z,-0.73
2018-01-22T07:58:41.405Z,-0.74
2018-01-22T07:59:51.297Z,-0.64
2018-01-22T08:01:01.508Z,-0.6
2018-01-22T08:02:11.686Z,-0.73
2018-01-22T08:03:21.796Z,-0.69
2018-01-22T08:04:31.925Z,-0.64
2018-01-22T08:05:42.035Z,-0.64
2018-01-22T08:06:52.172Z,-0.59
2018-01-22T08:08:01.932Z,-0.56
2018-01-22T08:09:11.802Z,-0.6
2018-01-22T08:10:21.905Z,-0.55
2018-01-22T08:11:32.006Z,-0.63
2018-01-22T08:12:43.116Z,-0.64
2018-01-22T08:13:53.311Z,-0.6
2018-01-22T08:15:03.219Z,-0.64
2018-01-22T08:16:13.422Z,-0.59
2018-01-22T08:17:23.708Z,-0.64
2018-01-22T08:18:33.841Z,-0.6
2018-01-22T08:19:44.011Z,-0.64
2018-01-22T08:20:54.159Z,-0.67
2018-01-22T08:22:04.282Z,-0.63
2018-01-22T08:23:14.099Z,-0.51
2018-01-22T08:24:24.255Z,-0.59
2018-01-22T08:25:33.995Z,-0.52
2018-01-22T08:26:44.477Z,-0.63
2018-01-22T08:27:55.631Z,-0.58
2018-01-22T08:29:05.146Z,-0.63
2018-01-22T08:30:15.286Z,-0.64
2018-01-22T08:31:25.405Z,-0.67
2018-01-22T08:32:35.576Z,-0.64
2018-01-22T08:33:45.757Z,-0.58
2018-01-22T08:34:55.992Z,-0.63
2018-01-22T08:36:06.148Z,-0.58
2018-01-22T08:37:16.307Z,-0.55
2018-01-22T08:38:26.417Z,-0.58
2018-01-22T08:39:36.554Z,-0.63
2018-01-22T08:40:46.712Z,-0.64
2018-01-22T08:41:56.894Z,-0.56
2018-01-22T08:43:06.796Z,-0.52
2018-01-22T08:44:16.941Z,-0.58
2018-01-22T08:45:27.077Z,-0.46
2018-01-22T08:46:37.232Z,-0.48
2018-01-22T08:47:47.073Z,-0.49
2018-01-22T08:48:57.249Z,-0.56
2018-01-22T08:50:07.382Z,-0.52
2018-01-22T08:51:17.635Z,-0.55
2018-01-22T08:52:27.791Z,-0.52
2018-01-22T08:53:38.069Z,-0.51
2018-01-22T08:54:48.261Z,-0.56
2018-01-22T08:55:58.512Z,-0.52
2018-01-22T08:57:08.392Z,-0.46
2018-01-22T08:58:19.493Z,-0.51
2018-01-22T08:59:29.685Z,-0.43
2018-01-22T09:00:39.917Z,-0.52
2018-01-22T09:01:50.102Z,-0.46
2018-01-22T09:03:00.300Z,-0.41
2018-01-22T09:04:10.441Z,-0.43
2018-01-22T09:05:20.557Z,-0.35
2018-01-22T09:06:30.680Z,-0.37
2018-01-22T09:07:40.840Z,-0.31
2018-01-22T09:08:50.959Z,-0.3
2018-01-22T09:10:00.719Z,-0.23
2018-01-22T09:11:10.870Z,-0.28
2018-01-22T09:12:21.241Z,-0.28
2018-01-22T09:13:31.393Z,-0.28
2018-01-22T09:14:41.568Z,-0.28
2018-01-22T09:15:51.809Z,-0.34
2018-01-22T09:17:01.995Z,-0.3
2018-01-22T09:18:12.171Z,-0.35
2018-01-22T09:19:22.277Z,-0.34
2018-01-22T09:20:32.424Z,-0.38
2018-01-22T09:21:42.563Z,-0.37
2018-01-22T09:22:52.683Z,-0.33
2018-01-22T09:24:02.813Z,-0.35
2018-01-22T09:25:12.962Z,-0.34
2018-01-22T09:26:23.174Z,-0.35
2018-01-22T09:27:33.294Z,-0.41
2018-01-22T09:28:43.411Z,-0.49
2018-01-22T09:29:53.714Z,-0.49
2018-01-22T09:31:03.863Z,-0.37
2018-01-22T09:32:13.993Z,-0.35
2018-01-22T09:33:24.155Z,-0.38
2018-01-22T09:34:34.354Z,-0.31
2018-01-22T09:35:44.488Z,-0.37
2018-01-22T09:36:54.084Z,-0.35
2018-01-22T09:38:04.225Z,-0.41
2018-01-22T09:39:14.364Z,-0.31
2018-01-22T09:40:24.561Z,-0.33
2018-01-22T09:41:34.733Z,-0.43
2018-01-22T09:42:44.945Z,-0.43
2018-01-22T09:43:55.218Z,-0.31
2018-01-22T09:45:05.370Z,-0.34
2018-01-22T09:46:15.628Z,-0.34
2018-01-22T09:47:25.848Z,-0.35
2018-01-22T09:48:36.039Z,-0.38
2018-01-22T09:49:46.261Z,-0.33
2018-01-22T09:50:56.390Z,-0.31
2018-01-22T09:52:06.557Z,-0.31
2018-01-22T09:53:16.741Z,-0.27
2018-01-22T09:54:26.838Z,-0.31
2018-01-22T09:55:36.999Z,-0.28
2018-01-22T09:56:47.103Z,-0.25
2018-01-22T09:57:57.312Z,-0.23
2018-01-22T09:59:07.470Z,-0.17
2018-01-22T10:00:17.588Z,-0.16
2018-01-22T10:01:27.723Z,-0.15
2018-01-22T10:02:37.844Z,-0.23
2018-01-22T10:03:47.976Z,-0.23
2018-01-22T10:04:58.110Z,-0.15
2018-01-22T10:06:08.403Z,-0.2
2018-01-22T10:07:18.547Z,-0.12
2018-01-22T10:08:28.703Z,-0.1
2018-01-22T10:09:38.948Z,-0.17
2018-01-22T10:10:49.321Z,-0.12
2018-01-22T10:11:59.220Z,-0.07
2018-01-22T10:13:09.390Z,-0.1
2018-01-22T10:14:19.497Z,-0.13
2018-01-22T10:15:29.690Z,-0.12
2018-01-22T10:16:39.838Z,-0.07
2018-01-22T10:17:50.111Z,-0.02
2018-01-22T10:19:00.349Z,0.01
2018-01-22T10:20:10.531Z,-0.02
2018-01-22T10:21:20.698Z,0.03
2018-01-22T10:22:31.001Z,-0.02
2018-01-22T10:23:41.125Z,0.06
2018-01-22T10:24:51.386Z,-0.01
2018-01-22T10:26:01.632Z,-0.04
2018-01-22T10:27:11.888Z,-0.09
2018-01-22T10:28:22.134Z,-0.06
2018-01-22T10:29:32.337Z,-0.04
2018-01-22T10:30:43.466Z,-0.04
2018-01-22T10:31:53.720Z,-0.04
2018-01-22T10:33:03.933Z,-0.01
2018-01-22T10:34:14.176Z,-0.02
2018-01-22T10:35:24.304Z,0.03
2018-01-22T10:36:34.473Z,0.03
2018-01-22T10:37:44.653Z,-0.04
2018-01-22T10:38:54.786Z,-0.01
2018-01-22T10:40:04.973Z,0.02
2018-01-22T10:41:15.129Z,0.03
2018-01-22T10:42:25.364Z,0.09
2018-01-22T10:43:35.515Z,0.08
2018-01-22T10:44:45.687Z,0.09
2018-01-22T10:45:55.993Z,0.09
2018-01-22T10:47:06.191Z,0.16
2018-01-22T10:48:16.436Z,0.22
2018-01-22T10:49:26.708Z,0.2
2018-01-22T10:50:37.003Z,0.2
2018-01-22T10:51:47.136Z,0.05
2018-01-22T10:52:57.403Z,0.11
2018-01-22T10:54:07.607Z,0.08
2018-01-22T10:55:17.832Z,0.03
2018-01-22T10:56:28.038Z,0.09
2018-01-22T10:57:38.161Z,0.01
2018-01-22T10:58:48.354Z,0.03
2018-01-22T10:59:58.604Z,0.08
2018-01-22T11:01:08.362Z,0.08
2018-01-22T11:02:18.683Z,0.12
2018-01-22T11:03:28.813Z,0.11
2018-01-22T11:04:38.977Z,0.2
2018-01-22T11:05:49.090Z,0.17
2018-01-22T11:06:59.206Z,0.14
2018-01-22T11:08:09.349Z,0.09
2018-01-22T11:09:19.472Z,0.14
2018-01-22T11:10:29.627Z,0.11
2018-01-22T11:11:39.912Z,0.11
2018-01-22T11:12:50.102Z,0.14
2018-01-22T11:14:00.315Z,0.01
2018-01-22T11:15:10.535Z,0.11
2018-01-22T11:16:20.407Z,0.02
2018-01-22T11:17:30.559Z,-0.01
2018-01-22T11:18:40.734Z,0.05
2018-01-22T11:19:50.901Z,0.05
2018-01-22T11:21:00.396Z,0.06
2018-01-22T11:22:10.570Z,0.08
2018-01-22T11:23:20.677Z,0.11
2018-01-22T11:24:30.816Z,0.09
2018-01-22T11:25:40.945Z,0.05
2018-01-22T11:26:51.159Z,0.09
2018-01-22T11:28:01.299Z,0.08
2018-01-22T11:29:11.427Z,0.09
2018-01-22T11:30:21.570Z,0.11
2018-01-22T11:31:31.792Z,0.17
2018-01-22T11:32:41.963Z,0.08
2018-01-22T11:33:52.107Z,0.09
2018-01-22T11:35:02.355Z,0.05
2018-01-22T11:36:12.589Z,0.06
2018-01-22T11:37:22.722Z,0.17
2018-01-22T11:38:32.911Z,0.2
2018-01-22T11:39:43.069Z,0.22
2018-01-22T11:40:53.203Z,0.16
2018-01-22T11:42:03.338Z,0.11
2018-01-22T11:43:13.473Z,0.06
2018-01-22T11:44:23.587Z,0.11
2018-01-22T11:45:33.761Z,0.17
2018-01-22T11:46:43.904Z,0.2
2018-01-22T11:47:54.036Z,0.27
2018-01-22T11:49:04.159Z,0.24
2018-01-22T11:50:14.322Z,0.25
2018-01-22T11:51:24.504Z,0.22
2018-01-22T11:52:34.778Z,0.28
2018-01-22T11:53:45.018Z,0.27
2018-01-22T11:54:55.219Z,0.4
2018-01-22T11:56:05.448Z,0.39
2018-01-22T11:57:15.631Z,0.42
2018-01-22T11:58:25.847Z,0.43
2018-01-22T11:59:36.100Z,0.38
2018-01-22T12:00:46.263Z,0.3
2018-01-22T12:01:56.415Z,0.28
2018-01-22T12:03:06.755Z,0.35
2018-01-22T12:04:16.910Z,0.22
2018-01-22T12:05:27.213Z,0.2
2018-01-22T12:06:37.474Z,0.24
2018-01-22T12:07:47.654Z,0.2
2018-01-22T12:08:57.981Z,0.21
2018-01-22T12:10:08.191Z,0.2
2018-01-22T12:11:18.352Z,0.14
2018-01-22T12:12:28.493Z,0.09
2018-01-22T12:13:38.454Z,0.08
2018-01-22T12:14:48.637Z,0.06
2018-01-22T12:15:58.793Z,0.03
2018-01-22T12:17:08.959Z,0.17
2018-01-22T12:18:19.117Z,0.25
2018-01-22T12:19:29.281Z,0.31
2018-01-22T12:20:39.436Z,0.4
2018-01-22T12:21:49.573Z,0.49
2018-01-22T12:22:59.701Z,0.54
2018-01-22T12:24:09.948Z,0.49
2018-01-22T12:25:20.076Z,0.61
2018-01-22T12:26:30.213Z,0.63
2018-01-22T12:27:40.383Z,0.64
2018-01-22T12:28:50.551Z,0.64
2018-01-22T12:30:00.666Z,0.71
2018-01-22T12:31:10.816Z,0.68
2018-01-22T12:32:20.956Z,0.71
2018-01-22T12:33:31.078Z,0.64
2018-01-22T12:34:41.186Z,0.67
2018-01-22T12:35:51.330Z,0.63
2018-01-22T12:37:01.156Z,0.58
2018-01-22T12:38:11.452Z,0.66
2018-01-22T12:39:21.644Z,0.63
2018-01-22T12:40:31.808Z,0.63
2018-01-22T12:41:41.926Z,0.71
2018-01-22T12:42:52.092Z,0.57
2018-01-22T12:44:02.208Z,0.58
2018-01-22T12:45:12.377Z,0.57
2018-01-22T12:46:22.507Z,0.61
2018-01-22T12:47:32.689Z,0.57
2018-01-22T12:48:42.943Z,0.63
2018-01-22T12:49:53.216Z,0.64
2018-01-22T12:51:03.347Z,0.56
2018-01-22T12:52:13.489Z,0.48
2018-01-22T12:53:23.631Z,0.45
2018-01-22T12:54:34.757Z,0.39
2018-01-22T12:55:44.942Z,0.45
2018-01-22T12:56:55.073Z,0.42
2018-01-22T12:58:05.311Z,0.33
2018-01-22T12:59:15.448Z,0.31
2018-01-22T13:00:25.681Z,0.46
2018-01-22T13:01:35.654Z,0.39
2018-01-22T13:02:45.778Z,0.31
2018-01-22T13:03:55.921Z,0.38
2018-01-22T13:05:06.124Z,0.3
2018-01-22T13:06:15.966Z,0.35
2018-01-22T13:07:26.116Z,0.36
2018-01-22T13:08:36.307Z,0.28
2018-01-22T13:09:46.434Z,0.27
2018-01-22T13:10:56.686Z,0.3
2018-01-22T13:12:06.845Z,0.35
2018-01-22T13:13:17.157Z,0.22
2018-01-22T13:14:27.456Z,0.28
2018-01-22T13:15:37.641Z,0.3
2018-01-22T13:16:47.842Z,0.25
2018-01-22T13:17:58.007Z,0.27
2018-01-22T13:19:08.284Z,0.36
2018-01-22T13:20:18.438Z,0.36
2018-01-22T13:21:28.601Z,0.28
2018-01-22T13:22:38.854Z,0.33
2018-01-22T13:23:50.107Z,0.33
2018-01-22T13:25:00.396Z,0.31
2018-01-22T13:26:10.537Z,0.33
2018-01-22T13:27:20.747Z,0.33
2018-01-22T13:28:30.888Z,0.43
2018-01-22T13:29:41.261Z,0.4
2018-01-22T13:30:51.478Z,0.5
2018-01-22T13:32:01.773Z,0.5
2018-01-22T13:33:11.946Z,0.5
2018-01-22T13:34:22.129Z,0.56
2018-01-22T13:35:32.326Z,0.58
2018-01-22T13:36:42.506Z,0.53
2018-01-22T13:37:52.665Z,0.49
2018-01-22T13:39:02.776Z,0.4
2018-01-22T13:40:12.883Z,0.42
2018-01-22T13:41:23.107Z,0.43
2018-01-22T13:42:33.238Z,0.45
2018-01-22T13:43:43.374Z,0.39
2018-01-22T13:44:53.571Z,0.42
2018-01-22T13:46:03.777Z,0.43
2018-01-22T13:47:13.899Z,0.45
2018-01-22T13:48:24.031Z,0.39
2018-01-22T13:49:34.173Z,0.3
2018-01-22T13:50:44.302Z,0.35
2018-01-22T13:51:54.474Z,0.33
2018-01-22T13:53:04.348Z,0.28
2018-01-22T13:54:14.496Z,0.22
2018-01-22T13:55:24.751Z,0.27
2018-01-22T13:56:34.994Z,0.21
2018-01-22T13:57:45.138Z,0.2
2018-01-22T13:58:55.030Z,0.24
2018-01-22T14:00:05.147Z,0.22
2018-01-22T14:01:15.271Z,0.2
2018-01-22T14:02:25.549Z,0.11
2018-01-22T14:03:35.691Z,0.09
2018-01-22T14:04:45.905Z,0.12
2018-01-22T14:05:56.087Z,0.22
2018-01-22T14:07:06.437Z,0.14
2018-01-22T14:08:16.683Z,0.16
2018-01-22T14:09:26.819Z,0.17
2018-01-22T14:10:37.060Z,0.16
2018-01-22T14:11:47.222Z,0.05
2018-01-22T14:12:57.382Z,0.12
2018-01-22T14:14:07.457Z,0.08
2018-01-22T14:15:17.572Z,0.09
2018-01-22T14:16:27.770Z,0.05
2018-01-22T14:17:37.927Z,0.02
2018-01-22T14:18:48.127Z,-0.01
2018-01-22T14:19:58.246Z,0.01
2018-01-22T14:21:08.444Z,-0.01
2018-01-22T14:22:18.758Z,0.01
2018-01-22T14:23:28.968Z,0.01
2018-01-22T14:24:38.786Z,0.02
2018-01-22T14:25:48.907Z,0.03
2018-01-22T14:26:59.153Z,0.05
2018-01-22T14:28:09.039Z,0.08
2018-01-22T14:29:19.294Z,0.06
2018-01-22T14:30:29.432Z,-0.06
2018-01-22T14:31:39.551Z,-0.06
2018-01-22T14:32:49.672Z,-0.09
2018-01-22T14:33:59.788Z,-0.01
2018-01-22T14:35:09.923Z,0.02
2018-01-22T14:36:20.072Z,0.05
2018-01-22T14:37:30.242Z,0.03
2018-01-22T14:38:40.419Z,0.02
2018-01-22T14:39:50.565Z,0.14
2018-01-22T14:41:00.811Z,0.21
2018-01-22T14:42:11.052Z,0.24
2018-01-22T14:43:21.206Z,0.24
2018-01-22T14:44:31.395Z,0.16
2018-01-22T14:45:41.538Z,0.16
2018-01-22T14:46:51.687Z,0.09
2018-01-22T14:48:01.830Z,0.11
2018-01-22T14:49:12.003Z,0.05
2018-01-22T14:50:22.175Z,0.09
2018-01-22T14:51:32.363Z,0.08
2018-01-22T14:52:42.582Z,0.05
2018-01-22T14:53:52.813Z,0.06
2018-01-22T14:55:03.008Z,0.01
2018-01-22T14:56:13.199Z,0.03
2018-01-22T14:57:23.380Z,0.06
2018-01-22T14:58:33.527Z,0.08
2018-01-22T14:59:43.675Z,0.02
2018-01-22T15:00:53.822Z,0.03
2018-01-22T15:02:03.960Z,-0.01
2018-01-22T15:03:14.182Z,0.01
2018-01-22T15:04:24.512Z,0.03
2018-01-22T15:05:34.670Z,0.03
2018-01-22T15:06:44.863Z,-0.02
2018-01-22T15:07:55.029Z,0.05
2018-01-22T15:09:06.181Z,-0.01
2018-01-22T15:10:16.350Z,0.05
2018-01-22T15:11:26.554Z,0.02
2018-01-22T15:12:36.853Z,-0.01
2018-01-22T15:13:47.087Z,-0.02
2018-01-22T15:14:56.959Z,-0.04
2018-01-22T15:16:07.100Z,-0.01